• Join FlightAware (Why Join?)
  • Login
  • US Flag 
Gobble Gobble! 
08:56PM EST


 

Airport Tracker/Info


-or-


 

Live Flight TrackerFlight Track Log ✈ SWA419 ✈ 03-May-2013 ✈ KDEN - KSJC

Flight Track Log - Related Links

Times and Time Zones

All times are in EDT time to prevent confusion due to time zone crossing. See the SWA419 flight status page for this flight to view local times or setup timezone preferences in your user account.

Time Position Orientation Groundspeed Altitude Reporting Facility
EDT Latitude Longitude Course Direction KTS MPH feet Rate Location/Type
09:27PM 39.9167 -104.7000 270° West 179 206 6,900  Level Denver TRACON
09:28PM 39.9167 -104.7833 270° West 275 316 9,000 2,280 Climbing Denver TRACON
09:29PM 39.9333 -104.9000 281° West 324 373 11,500 3,240 Climbing Denver TRACON
09:30PM 39.9425 -105.0278 275° West 344 396 15,600 3,240 Climbing Denver Center
09:31PM 39.9264 -105.1572 261° West 363 418 18,300 2,700 Climbing Denver Center
09:32PM 39.9086 -105.3067 261° West 392 451 21,300 2,700 Climbing Denver Center
09:33PM 39.8922 -105.4472 261° West 396 456 23,900 2,220 Climbing Denver Center
09:34PM 39.8736 -105.6028 261° West 416 479 26,000 1,680 Climbing Denver Center
09:35PM 39.8544 -105.7525 261° West 420 483 27,400 1,620 Climbing Denver Center
09:36PM 39.8436 -105.8989 265° West 405 466 29,400 2,160 Climbing Denver Center
09:37PM 39.8308 -106.0503 264° West 414 476 31,900 2,340 Climbing Denver Center
09:38PM 39.8189 -106.1933 264° West 398 458 34,300 1,980 Climbing Denver Center
09:39PM 39.8056 -106.3342 263° West 391 450 36,000 1,260 Climbing Denver Center
09:40PM 39.7903 -106.4958 263° West 385 443 37,000 480 Climbing Denver Center
09:41PM 39.7783 -106.6333 264° West 382 440 37,000  Level Denver Center
09:42PM 39.7658 -106.7425 262° West 382 440 37,100 420 Climbing Denver Center
09:43PM 39.7475 -106.9036 262° West 379 436 38,000 360 Climbing Denver Center
09:44PM 39.7300 -107.0650 262° West 381 438 38,000  Level Denver Center
09:45PM 39.7128 -107.2092 261° West 379 436 38,000  Level Denver Center
09:46PM 39.6961 -107.3592 262° West 376 433 38,000  Level Denver Center
09:48PM 39.6811 -107.4883 261° West 378 435 38,000  Level Denver Center
09:49PM 39.6636 -107.6389 261° West 377 434 38,000  Level Denver Center
09:50PM 39.6481 -107.7683 261° West 379 436 38,000  Level Denver Center
09:51PM 39.6297 -107.9181 261° West 378 435 38,000  Level Denver Center
09:52PM 39.6142 -108.0467 261° West 377 434 38,000  Level Denver Center
09:53PM 39.5967 -108.1961 261° West 377 434 38,000  Level Denver Center
09:54PM 39.5800 -108.3256 261° West 381 438 38,000  Level Denver Center
09:55PM 39.5653 -108.4531 262° West 374 430 38,000  Level Denver Center
09:56PM 39.5469 -108.6031 261° West 374 430 38,000  Level Denver Center
09:57PM 39.5294 -108.7328 260° West 376 433 38,000  Level Denver Center
09:58PM 39.5092 -108.8867 260° West 382 440 38,000  Level Denver Center
09:59PM 39.4922 -109.0181 261° West 383 441 38,000  Level Denver Center
10:00PM 39.4764 -109.1478 261° West 381 438 38,000  Level Denver Center
10:01PM 39.4558 -109.3019 260° West 388 447 38,000  Level Denver Center
10:02PM 39.4392 -109.4317 261° West 382 440 38,000  Level Denver Center
10:02PM 39.4306 -109.4972 260° West 385 443 38,000  Level Salt Lake Center
10:03PM 39.4100 -109.6483 260° West 382 440 38,000  Level Salt Lake Center
10:04PM 39.4003 -109.7119 259° West 380 437 38,000  Level Denver Center
10:05PM 39.3806 -109.8597 260° West 377 434 38,000  Level Denver Center
10:05PM 39.3747 -109.9028 260° West 376 433 38,000  Level Salt Lake Center
10:07PM 39.3544 -110.0553 260° West 385 443 38,000  Level Salt Lake Center
10:08PM 39.3383 -110.1831 261° West 378 435 38,000  Level Salt Lake Center
10:09PM 39.3175 -110.3292 260° West 372 428 38,000  Level Salt Lake Center
10:09PM 39.3061 -110.4142 260° West 374 430 38,000  Level Denver Center
10:10PM 39.2889 -110.5397 260° West 371 427 38,000  Level Denver Center
10:11PM 39.2686 -110.6825 260° West 364 419 38,000  Level Denver Center
10:12PM 39.2642 -110.7247 262° West 366 421 38,000  Level Salt Lake Center
10:13PM 39.2458 -110.8483 259° West 367 422 38,000  Level Salt Lake Center
10:14PM 39.2228 -110.9983 259° West 380 437 38,000  Level Salt Lake Center
10:15PM 39.2042 -111.1294 260° West 388 447 38,000  Level Salt Lake Center
10:16PM 39.1850 -111.2783 261° West 383 441 38,000  Level Salt Lake Center
10:17PM 39.1678 -111.4056 260° West 366 421 38,000  Level Salt Lake Center
10:18PM 39.1472 -111.5333 258° West 366 421 38,000  Level Salt Lake Center
10:19PM 39.1283 -111.6625 259° West 368 423 38,000  Level Salt Lake Center
10:20PM 39.1103 -111.7903 260° West 366 421 38,000  Level Salt Lake Center
10:21PM 39.0906 -111.9158 259° West 361 415 38,000  Level Salt Lake Center
10:22PM 39.0722 -112.0411 259° West 357 411 38,000  Level Salt Lake Center
10:23PM 39.0522 -112.1661 258° West 357 411 38,000  Level Salt Lake Center
10:24PM 39.0300 -112.3164 259° West 358 412 38,000  Level Salt Lake Center
10:25PM 39.0092 -112.4414 258° West 360 414 38,000  Level Salt Lake Center
10:26PM 38.9897 -112.5686 259° West 364 419 38,000  Level Salt Lake Center
10:27PM 38.9683 -112.6983 258° West 371 427 38,000  Level Salt Lake Center
10:28PM 38.9494 -112.8267 259° West 371 427 38,000  Level Salt Lake Center
10:29PM 38.9283 -112.9544 258° West 369 425 38,000  Level Salt Lake Center
10:30PM 38.9072 -113.0831 258° West 370 426 38,000  Level Salt Lake Center
10:31PM 38.8831 -113.2386 259° West 372 428 38,000  Level Salt Lake Center
10:32PM 38.8608 -113.3714 258° West 379 436 38,000  Level Salt Lake Center
10:33PM 38.8392 -113.5036 258° West 382 440 38,000  Level Salt Lake Center
10:34PM 38.8175 -113.6342 258° West 377 434 38,000  Level Salt Lake Center
10:35PM 38.7964 -113.7667 258° West 380 437 38,000  Level Salt Lake Center
10:36PM 38.7733 -113.8989 257° West 381 438 38,000  Level Salt Lake Center
10:37PM 38.7500 -114.0319 257° West 385 443 38,000  Level Salt Lake Center
10:38PM 38.7236 -114.1944 258° West 390 449 38,000  Level Salt Lake Center
10:39PM 38.7003 -114.3272 257° West 386 444 38,000  Level Salt Lake Center
10:40PM 38.6769 -114.4594 257° West 384 442 38,000  Level Salt Lake Center
10:41PM 38.6544 -114.5894 258° West 377 434 38,000  Level Salt Lake Center
10:42PM 38.6306 -114.7225 257° West 384 442 38,000  Level Salt Lake Center
10:43PM 38.6058 -114.8553 257° West 385 443 38,000  Level Salt Lake Center
10:44PM 38.5833 -114.9844 257° West 379 436 38,000  Level Salt Lake Center
10:45PM 38.5592 -115.1158 257° West 380 437 38,000  Level Salt Lake Center
10:46PM 38.5314 -115.2711 257° West 377 434 38,000  Level Salt Lake Center
10:48PM 38.5108 -115.3806 257° West 379 436 38,000  Level Salt Lake Center
10:49PM 38.4833 -115.5372 257° West 377 434 38,000  Level Salt Lake Center
10:50PM 38.4586 -115.6675 256° West 378 435 38,000  Level Salt Lake Center
10:51PM 38.4344 -115.7967 257° West 376 433 38,000  Level Salt Lake Center
10:52PM 38.4103 -115.9272 257° West 377 434 38,000  Level Salt Lake Center
10:53PM 38.3858 -116.0583 257° West 380 437 38,000  Level Salt Lake Center
10:54PM 38.3608 -116.1886 256° West 378 435 38,000  Level Salt Lake Center
10:55PM 38.3358 -116.3192 256° West 380 437 38,000  Level Salt Lake Center
10:56PM 38.3078 -116.4478 255° West 377 434 38,000  Level Salt Lake Center
10:56PM 38.2958 -116.4989 253° West 378 435 38,000  Level Oakland Center
10:57PM 38.2669 -116.6275 254° West 379 436 38,000  Level Oakland Center
10:58PM 38.2383 -116.7567 254° West 379 436 38,000  Level Oakland Center
10:59PM 38.2089 -116.8844 254° West 378 435 38,000  Level Oakland Center
11:00PM 38.1850 -116.9869 254° West 377 434 38,000  Level Salt Lake Center
11:01PM 38.1572 -117.1092 254° West 376 433 38,000  Level Salt Lake Center
11:02PM 38.1231 -117.2561 254° West 377 434 38,000  Level Salt Lake Center
11:02PM 38.1158 -117.2869 253° West 385 443 38,000  Level Oakland Center
11:03PM 38.0869 -117.4117 254° West 378 435 38,000  Level Oakland Center
11:04PM 38.0569 -117.5417 254° West 382 440 38,000  Level Oakland Center
11:05PM 38.0272 -117.6689 254° West 377 434 38,000  Level Oakland Center
11:06PM 37.9875 -117.7944 248° West 397 457 38,000 -300 Level Oakland Center
11:07PM 37.9233 -117.9042 233° Southwest 389 448 37,500 -780 Descending Oakland Center
11:08PM 37.8572 -118.0133 233° Southwest 391 450 36,500 -1,020 Descending Oakland Center
11:09PM 37.7908 -118.1233 233° Southwest 394 453 35,500 -1,080 Descending Oakland Center
11:10PM 37.7106 -118.2578 233° Southwest 400 460 34,400 -1,140 Descending Oakland Center
11:11PM 37.6433 -118.3689 233° Southwest 400 460 33,300 -1,080 Descending Oakland Center
11:12PM 37.5783 -118.4772 233° Southwest 390 449 32,300 -1,020 Descending Oakland Center
11:13PM 37.5131 -118.5856 233° Southwest 387 445 31,300 -1,020 Descending Oakland Center
11:14PM 37.4458 -118.6925 232° Southwest 390 449 30,300 -660 Descending Oakland Center
11:15PM 37.3861 -118.8103 237° Southwest 373 429 30,000 -180 Descending Oakland Center
11:16PM 37.3733 -118.9394 263° West 371 427 30,000 -60 Level Oakland Center
11:17PM 37.3608 -119.0706 263° West 376 433 29,900 -600 Descending Oakland Center
11:18PM 37.3503 -119.2119 265° West 418 481 28,900 -1,020 Descending Oakland Center
11:19PM 37.3350 -119.3472 262° West 402 463 27,900 -960 Descending Oakland Center
11:20PM 37.3175 -119.4764 260° West 374 430 27,000 -1,020 Descending Oakland Center
11:21PM 37.3050 -119.6172 264° West 396 456 25,900 -1,080 Descending Oakland Center
11:22PM 37.2906 -119.7508 262° West 388 447 24,900 -1,020 Descending Oakland Center
11:24PM 37.2736 -119.8950 262° West 390 449 23,900 -1,020 Descending Oakland Center
11:25PM 37.2592 -120.0267 262° West 383 441 22,900 -1,020 Descending Oakland Center
11:26PM 37.2444 -120.1581 262° West 385 443 21,900 -1,200 Descending Oakland Center
11:27PM 37.2294 -120.2883 262° West 380 437 20,500 -1,320 Descending Oakland Center
11:28PM 37.2128 -120.4122 260° West 364 419 19,300 -1,200 Descending Oakland Center
11:28PM 37.2000 -120.5167 261° West 431 496 18,500 -1,080 Descending Northern Cal TRACON
11:29PM 37.1833 -120.6167 258° West 366 421 17,600 -1,080 Descending Northern Cal TRACON
11:30PM 37.1667 -120.7500 261° West 361 415 16,500 -1,020 Descending Northern Cal TRACON
11:31PM 37.1500 -120.8833 261° West 356 410 15,500 -960 Descending Northern Cal TRACON
11:32PM 37.1417 -120.9228 255° West 338 389 15,100 -1,020 Descending Oakland Center
11:33PM 37.1239 -121.0450 260° West 351 404 14,100 -1,020 Descending Oakland Center
11:34PM 37.1061 -121.1642 259° West 349 402 13,100 -1,080 Descending Oakland Center
11:35PM 37.0894 -121.2769 260° West 339 390 12,000 -1,560 Descending Oakland Center
11:36PM 37.1014 -121.3797 278° West 306 352 10,000 -2,040 Descending Oakland Center
11:37PM 37.1203 -121.4797 283° West 297 342 7,900 -2,100 Descending Oakland Center
11:38PM 37.1383 -121.5767 283° West 289 333 5,800 -1,320 Descending Oakland Center
11:39PM 37.1517 -121.6583 282° West 277 319 5,300 -720 Descending Oakland Center
11:40PM 37.1814 -121.7389 295° West 241 277 4,400 -960 Descending Oakland Center
11:41PM 37.2206 -121.7756 323° Northwest 199 229 3,400 -840 Descending Oakland Center
11:42PM 37.2519 -121.8111 318° Northwest 171 197 2,700 -720 Descending Oakland Center
11:43PM 37.2803 -121.8414 320° Northwest 149 171 2,000 -720 Descending Oakland Center
11:44PM 37.3067 -121.8711 318° Northwest 138 159 1,300 -720 Descending Oakland Center
11:45PM 37.3319 -121.8978 320° Northwest 127 146 600 11,160 Descending Oakland Center
11:46PM 37.3578 -121.9256 319° Northwest 123 142 24,000 22,980 Climbing Oakland Center
11:48PM 37.3500 -121.9167 North  Level FlightAware Approximate